createdAt,value
2023-02-06T00:00:37.052Z,17.73
2023-02-06T00:03:04.096Z,17.70
2023-02-06T00:05:31.189Z,19.58
2023-02-06T00:07:58.330Z,18.15
2023-02-06T00:10:25.325Z,19.05
2023-02-06T00:12:52.375Z,16.15
2023-02-06T00:15:19.459Z,18.35
2023-02-06T00:17:46.504Z,18.20
2023-02-06T00:20:13.729Z,16.60
2023-02-06T00:22:41.348Z,17.40
2023-02-06T00:25:08.510Z,20.73
2023-02-06T00:27:35.831Z,17.23
2023-02-06T00:30:02.883Z,18.17
2023-02-06T00:32:29.952Z,18.15
2023-02-06T00:34:58.010Z,19.02
2023-02-06T00:37:25.062Z,18.95
2023-02-06T00:39:52.214Z,17.65
2023-02-06T00:42:19.333Z,18.70
2023-02-06T00:44:46.331Z,20.13
2023-02-06T00:47:13.343Z,17.92
2023-02-06T00:49:40.359Z,20.50
2023-02-06T00:52:07.416Z,19.55
2023-02-06T00:54:34.466Z,18.25
2023-02-06T00:57:01.489Z,18.85
2023-02-06T00:59:28.504Z,17.58
2023-02-06T01:01:55.638Z,18.70
2023-02-06T01:04:22.695Z,17.35
2023-02-06T01:06:49.772Z,20.00
2023-02-06T01:09:16.900Z,18.95
2023-02-06T01:11:46.119Z,20.20
2023-02-06T01:14:13.213Z,21.55
2023-02-06T01:16:40.613Z,21.77
2023-02-06T01:19:07.627Z,18.60
2023-02-06T01:21:34.653Z,20.20
2023-02-06T01:24:01.682Z,18.90
2023-02-06T01:26:28.706Z,18.52
2023-02-06T01:28:56.000Z,20.10
2023-02-06T01:31:24.968Z,18.73
2023-02-06T01:33:52.564Z,17.65
2023-02-06T01:36:20.290Z,19.77
2023-02-06T01:38:47.861Z,19.00
2023-02-06T01:41:16.260Z,19.50
2023-02-06T01:43:44.533Z,20.02
2023-02-06T01:46:11.566Z,18.98
2023-02-06T01:48:40.104Z,20.58
2023-02-06T01:51:09.524Z,18.27
2023-02-06T01:53:36.701Z,18.20
2023-02-06T01:56:05.116Z,18.05
2023-02-06T01:58:37.458Z,22.98
2023-02-06T02:01:05.220Z,15.93
2023-02-06T02:03:34.551Z,18.05
2023-02-06T02:06:03.473Z,18.27
2023-02-06T02:08:36.744Z,18.15
2023-02-06T02:11:04.833Z,18.40
2023-02-06T02:13:32.103Z,21.40
2023-02-06T02:16:01.119Z,20.20
2023-02-06T02:18:38.910Z,19.15
2023-02-06T02:21:20.228Z,19.48
2023-02-06T02:23:53.238Z,18.88
2023-02-06T02:26:32.904Z,16.10
2023-02-06T02:29:18.318Z,20.73
2023-02-06T02:31:51.296Z,21.45
2023-02-06T02:34:36.810Z,21.70
2023-02-06T02:37:10.036Z,21.63
2023-02-06T02:39:44.776Z,20.20
2023-02-06T02:42:11.787Z,18.10
2023-02-06T02:44:57.868Z,19.15
2023-02-06T02:47:27.724Z,20.23
2023-02-06T02:49:55.229Z,19.65
2023-02-06T02:52:22.303Z,21.95
2023-02-06T02:54:49.427Z,19.25
2023-02-06T02:57:19.594Z,21.23
2023-02-06T02:59:47.595Z,18.40
2023-02-06T03:02:23.222Z,20.67
2023-02-06T03:04:50.232Z,20.52
2023-02-06T03:07:17.252Z,19.95
2023-02-06T03:10:02.576Z,21.05
2023-02-06T03:12:40.146Z,22.98
2023-02-06T03:15:29.907Z,18.98
2023-02-06T03:18:01.765Z,18.90
2023-02-06T03:20:31.028Z,20.38
2023-02-06T03:22:59.152Z,25.95
2023-02-06T03:25:31.240Z,22.33
2023-02-06T03:27:59.242Z,19.75
2023-02-06T03:30:27.296Z,21.42
2023-02-06T03:32:57.271Z,21.00
2023-02-06T03:35:27.351Z,21.80
2023-02-06T03:37:54.529Z,20.52
2023-02-06T03:40:21.975Z,21.80
2023-02-06T03:42:51.396Z,21.88
2023-02-06T03:45:37.805Z,19.15
2023-02-06T03:48:09.395Z,21.45
2023-02-06T03:50:37.395Z,20.00
2023-02-06T03:53:05.195Z,21.40
2023-02-06T03:55:32.280Z,21.42
2023-02-06T03:58:04.365Z,22.38
2023-02-06T04:00:32.152Z,21.02
2023-02-06T04:02:59.917Z,18.88
2023-02-06T04:05:27.249Z,21.45
2023-02-06T04:07:56.459Z,22.40
2023-02-06T04:10:26.174Z,21.10
2023-02-06T04:12:53.721Z,22.27
2023-02-06T04:15:20.915Z,21.13
2023-02-06T04:17:59.293Z,21.73
2023-02-06T04:20:26.987Z,21.92
2023-02-06T04:22:54.087Z,21.42
2023-02-06T04:25:21.110Z,21.00
2023-02-06T04:27:48.181Z,22.38
2023-02-06T04:30:15.656Z,23.48
2023-02-06T04:32:42.734Z,22.02
2023-02-06T04:35:10.009Z,22.73
2023-02-06T04:37:37.649Z,21.67
2023-02-06T04:40:04.995Z,23.00
2023-02-06T04:42:32.003Z,23.70
2023-02-06T04:44:59.038Z,22.63
2023-02-06T04:47:26.118Z,21.45
2023-02-06T04:49:53.269Z,20.02
2023-02-06T04:52:20.315Z,23.45
2023-02-06T04:54:47.325Z,22.23
2023-02-06T04:57:14.357Z,22.80
2023-02-06T04:59:41.367Z,22.65
2023-02-06T05:02:08.373Z,24.35
2023-02-06T05:04:35.385Z,24.90
2023-02-06T05:07:04.584Z,24.88
2023-02-06T05:09:32.461Z,21.58
2023-02-06T05:11:59.544Z,24.70
2023-02-06T05:14:26.601Z,23.88
2023-02-06T05:16:53.657Z,23.33
2023-02-06T05:19:20.677Z,24.15
2023-02-06T05:21:47.725Z,25.67
2023-02-06T05:24:14.737Z,28.92
2023-02-06T05:26:41.739Z,25.33
2023-02-06T05:29:08.848Z,25.20
2023-02-06T05:31:36.138Z,28.33
2023-02-06T05:34:03.244Z,24.45
2023-02-06T05:36:30.356Z,24.00
2023-02-06T05:38:57.390Z,25.02
2023-02-06T05:41:24.444Z,24.27
2023-02-06T05:43:51.475Z,27.38
2023-02-06T05:46:19.435Z,26.05
2023-02-06T05:48:46.483Z,24.85
2023-02-06T05:51:13.559Z,26.10
2023-02-06T05:53:40.603Z,27.85
2023-02-06T05:56:07.772Z,26.42
2023-02-06T05:58:34.963Z,28.80
2023-02-06T06:01:02.010Z,29.52
2023-02-06T06:03:29.597Z,27.45
2023-02-06T06:05:58.005Z,27.10
2023-02-06T06:08:25.037Z,30.77
2023-02-06T06:10:52.877Z,26.38
2023-02-06T06:13:20.091Z,28.77
2023-02-06T06:15:50.389Z,25.85
2023-02-06T06:18:17.426Z,28.35
2023-02-06T06:20:44.455Z,26.23
2023-02-06T06:23:11.521Z,34.55
2023-02-06T06:25:38.582Z,27.77
2023-02-06T06:28:05.806Z,27.70
2023-02-06T06:30:35.354Z,28.70
2023-02-06T06:33:02.676Z,29.50
2023-02-06T06:35:29.778Z,30.13
2023-02-06T06:37:56.825Z,32.35
2023-02-06T06:40:23.883Z,29.92
2023-02-06T06:42:50.974Z,27.52
2023-02-06T06:45:18.067Z,27.75
2023-02-06T06:47:45.085Z,30.35
2023-02-06T06:50:12.096Z,28.73
2023-02-06T06:52:39.141Z,29.90
2023-02-06T06:55:06.352Z,29.75
2023-02-06T06:57:33.535Z,30.77
2023-02-06T07:00:00.600Z,31.10
2023-02-06T07:02:28.530Z,29.95
2023-02-06T07:04:55.940Z,29.58
2023-02-06T07:07:23.169Z,30.60
2023-02-06T07:09:50.281Z,31.58
2023-02-06T07:12:17.375Z,31.45
2023-02-06T07:14:44.396Z,34.05
2023-02-06T07:17:11.506Z,34.03
2023-02-06T07:19:38.509Z,31.05
2023-02-06T07:22:05.928Z,32.17
2023-02-06T07:24:32.949Z,36.22
2023-02-06T07:27:00.046Z,31.55
2023-02-06T07:29:27.160Z,27.67
2023-02-06T07:31:54.285Z,32.30
2023-02-06T07:34:21.369Z,31.55
2023-02-06T07:36:48.408Z,36.30
2023-02-06T07:39:15.445Z,31.55
2023-02-06T07:41:42.882Z,29.92
2023-02-06T07:44:12.755Z,32.35
2023-02-06T07:46:39.760Z,34.35
2023-02-06T07:49:06.764Z,28.75
2023-02-06T07:51:34.223Z,28.25
2023-02-06T07:54:01.292Z,26.63
2023-02-06T07:56:28.324Z,26.25
2023-02-06T07:58:55.741Z,33.00
2023-02-06T08:01:23.578Z,30.27
2023-02-06T08:03:51.632Z,26.55
2023-02-06T08:06:19.180Z,28.02
2023-02-06T08:08:46.508Z,26.20
2023-02-06T08:11:18.540Z,27.73
2023-02-06T08:13:46.436Z,26.42
2023-02-06T08:16:21.441Z,25.52
2023-02-06T08:18:48.626Z,27.92
2023-02-06T08:21:17.784Z,34.75
2023-02-06T08:23:44.920Z,26.90
2023-02-06T08:26:14.413Z,25.02
2023-02-06T08:28:42.457Z,25.48
2023-02-06T08:31:14.347Z,24.88
2023-02-06T08:33:41.593Z,27.52
2023-02-06T08:36:08.862Z,23.15
2023-02-06T08:38:36.182Z,21.50
2023-02-06T08:41:03.323Z,25.30
2023-02-06T08:43:32.241Z,23.30
2023-02-06T08:46:00.206Z,20.15
2023-02-06T08:48:27.458Z,20.85
2023-02-06T08:51:07.570Z,21.23
2023-02-06T08:53:34.701Z,18.55
2023-02-06T08:56:02.692Z,19.48
2023-02-06T08:58:29.730Z,21.48
2023-02-06T09:00:57.159Z,19.83
2023-02-06T09:03:24.241Z,18.83
2023-02-06T09:05:52.681Z,19.83
2023-02-06T09:08:21.093Z,20.33
2023-02-06T09:10:48.213Z,18.67
2023-02-06T09:13:15.321Z,18.00
2023-02-06T09:15:43.238Z,19.42
2023-02-06T09:18:10.334Z,18.52
2023-02-06T09:20:37.367Z,17.30
2023-02-06T09:23:04.356Z,17.05
2023-02-06T09:25:31.333Z,17.48
2023-02-06T09:27:58.427Z,18.33
2023-02-06T09:30:25.487Z,18.27
2023-02-06T09:32:52.492Z,15.77
2023-02-06T09:35:19.492Z,15.38
2023-02-06T09:37:46.588Z,13.93
2023-02-06T09:40:15.265Z,13.70
2023-02-06T09:42:42.532Z,16.25
2023-02-06T09:45:15.571Z,14.18
2023-02-06T09:47:47.525Z,23.90
2023-02-06T09:50:14.636Z,16.58
2023-02-06T09:52:47.390Z,14.80
2023-02-06T09:55:17.125Z,14.68
2023-02-06T09:57:51.844Z,14.10
2023-02-06T10:00:29.749Z,16.80
2023-02-06T10:02:59.872Z,14.18
2023-02-06T10:05:26.928Z,14.93
2023-02-06T10:08:12.817Z,13.05
2023-02-06T10:10:45.995Z,15.57
2023-02-06T10:13:18.937Z,12.50
2023-02-06T10:15:47.648Z,13.52
2023-02-06T10:18:22.111Z,14.90
2023-02-06T10:20:52.142Z,12.30
2023-02-06T10:23:32.714Z,14.32
2023-02-06T10:26:05.850Z,15.85
2023-02-06T10:28:35.184Z,13.15
2023-02-06T10:31:14.282Z,15.93
2023-02-06T10:33:41.413Z,16.20
2023-02-06T10:36:21.895Z,15.75
2023-02-06T10:38:58.854Z,16.80
2023-02-06T10:41:31.861Z,20.40
2023-02-06T10:44:11.852Z,19.10
2023-02-06T10:46:42.282Z,13.27
2023-02-06T10:49:16.090Z,14.93
2023-02-06T10:54:16.302Z,16.95
2023-02-06T10:56:44.605Z,14.63
2023-02-06T10:59:11.579Z,16.13
2023-02-06T11:01:40.451Z,13.27
2023-02-06T11:04:27.708Z,17.08
2023-02-06T11:06:58.241Z,14.38
2023-02-06T11:09:25.278Z,13.43
2023-02-06T11:11:54.521Z,19.40
2023-02-06T11:14:25.135Z,16.48
2023-02-06T11:16:52.572Z,16.90
2023-02-06T11:19:55.074Z,15.68
2023-02-06T11:22:34.890Z,13.35
2023-02-06T11:25:18.800Z,13.88
2023-02-06T11:27:45.935Z,14.23
2023-02-06T11:30:31.860Z,14.52
2023-02-06T11:33:04.592Z,18.08
2023-02-06T11:35:35.020Z,18.07
2023-02-06T11:38:07.634Z,15.70
2023-02-06T11:40:34.975Z,16.67
2023-02-06T11:43:17.413Z,15.52
2023-02-06T11:45:44.956Z,15.13
2023-02-06T11:48:30.831Z,14.43
2023-02-06T11:50:57.910Z,17.65
2023-02-06T11:53:24.936Z,13.65
2023-02-06T11:55:59.729Z,16.02
2023-02-06T11:58:27.569Z,13.48
2023-02-06T12:00:57.366Z,12.50
2023-02-06T12:03:27.268Z,17.17
2023-02-06T12:05:54.707Z,14.82
2023-02-06T12:08:22.150Z,16.65
2023-02-06T12:10:53.592Z,16.13
2023-02-06T12:13:22.031Z,16.50
2023-02-06T12:15:51.770Z,16.48
2023-02-06T12:18:24.763Z,17.77
2023-02-06T12:20:59.041Z,18.50
2023-02-06T12:23:32.621Z,14.35
2023-02-06T12:26:01.550Z,14.55
2023-02-06T12:28:34.532Z,14.40
2023-02-06T12:31:04.843Z,16.65
2023-02-06T12:33:36.088Z,15.00
2023-02-06T12:36:07.453Z,15.15
2023-02-06T12:38:37.583Z,16.38
2023-02-06T12:41:10.364Z,13.93
2023-02-06T12:43:38.659Z,15.43
2023-02-06T12:46:11.882Z,18.08
2023-02-06T12:48:44.638Z,15.00
2023-02-06T12:51:11.617Z,14.73
2023-02-06T12:53:41.261Z,13.00
2023-02-06T12:56:14.512Z,15.02
2023-02-06T12:58:44.322Z,14.55
2023-02-06T13:01:33.791Z,16.15
2023-02-06T13:04:04.272Z,16.13
2023-02-06T13:06:36.496Z,16.17
2023-02-06T13:09:05.137Z,16.95
2023-02-06T13:11:35.417Z,17.48
2023-02-06T13:14:05.276Z,18.98
2023-02-06T13:16:58.565Z,17.17
2023-02-06T13:19:27.421Z,17.73
2023-02-06T13:22:19.351Z,20.10
2023-02-06T13:24:47.534Z,18.27
2023-02-06T13:27:14.551Z,18.67
2023-02-06T13:29:42.875Z,16.35
2023-02-06T13:32:14.838Z,18.75
2023-02-06T13:34:43.910Z,24.25
2023-02-06T13:37:29.912Z,19.50
2023-02-06T13:40:15.916Z,20.30
2023-02-06T13:42:57.574Z,19.23
2023-02-06T13:45:44.933Z,21.58
2023-02-06T13:48:30.714Z,19.73
2023-02-06T13:51:07.542Z,19.52
2023-02-06T13:53:40.681Z,21.98
2023-02-06T13:56:16.212Z,18.05
2023-02-06T13:58:50.487Z,19.95
2023-02-06T14:01:26.975Z,18.95
2023-02-06T14:03:54.585Z,22.45
2023-02-06T14:06:28.764Z,23.83
2023-02-06T14:09:03.195Z,19.27
2023-02-06T14:11:39.625Z,19.98
2023-02-06T14:14:17.561Z,20.33
2023-02-06T14:16:44.566Z,22.98
2023-02-06T14:19:22.807Z,18.98
2023-02-06T14:21:49.795Z,16.42
2023-02-06T14:24:27.734Z,20.35
2023-02-06T14:26:55.193Z,17.77
2023-02-06T14:29:22.227Z,22.17
2023-02-06T14:32:07.985Z,20.30
2023-02-06T14:34:38.082Z,16.85
2023-02-06T14:37:07.985Z,16.90
2023-02-06T14:39:54.014Z,14.63
2023-02-06T14:42:21.213Z,16.25
2023-02-06T14:44:52.988Z,16.23
2023-02-06T14:47:23.803Z,16.58
2023-02-06T14:49:51.541Z,15.30
2023-02-06T14:52:21.983Z,14.27
2023-02-06T14:54:49.062Z,17.35
2023-02-06T14:57:21.304Z,17.83
2023-02-06T14:59:53.158Z,17.00
2023-02-06T15:02:24.670Z,13.27
2023-02-06T15:04:51.784Z,14.52
2023-02-06T15:07:30.504Z,15.68
2023-02-06T15:10:02.685Z,16.27
2023-02-06T15:12:30.100Z,16.17
2023-02-06T15:15:02.485Z,16.45
2023-02-06T15:17:30.060Z,19.05
2023-02-06T15:19:57.412Z,13.88
2023-02-06T15:22:27.504Z,13.90
2023-02-06T15:24:58.850Z,13.43
2023-02-06T15:27:28.416Z,14.52
2023-02-06T15:29:55.825Z,15.43
2023-02-06T15:32:27.794Z,14.70
2023-02-06T15:34:55.278Z,15.00
2023-02-06T15:37:23.243Z,13.30
2023-02-06T15:39:50.660Z,15.30
2023-02-06T15:42:19.030Z,14.07
2023-02-06T15:44:46.194Z,14.27
2023-02-06T15:47:14.769Z,18.23
2023-02-06T15:49:43.303Z,17.55
2023-02-06T15:52:10.983Z,15.05
2023-02-06T15:54:40.990Z,18.58
2023-02-06T15:57:15.771Z,17.50
2023-02-06T15:59:42.920Z,21.30
2023-02-06T16:02:23.753Z,19.98
2023-02-06T16:04:52.339Z,21.40
2023-02-06T16:07:21.813Z,16.80
2023-02-06T16:09:52.874Z,21.17
2023-02-06T16:12:21.311Z,21.27
2023-02-06T16:14:53.173Z,23.42
2023-02-06T16:17:20.164Z,18.70
2023-02-06T16:19:47.347Z,21.27
2023-02-06T16:22:28.465Z,17.95
2023-02-06T16:24:56.879Z,16.60
2023-02-06T16:27:25.612Z,17.45
2023-02-06T16:29:54.545Z,19.55
2023-02-06T16:32:23.253Z,21.52
2023-02-06T16:34:50.352Z,18.60
2023-02-06T16:37:19.146Z,17.23
2023-02-06T16:39:46.514Z,17.95
2023-02-06T16:42:14.814Z,17.88
2023-02-06T16:44:45.059Z,15.20
2023-02-06T16:47:13.995Z,16.67
2023-02-06T16:49:41.182Z,16.70
2023-02-06T16:52:08.584Z,16.63
2023-02-06T16:54:35.711Z,21.77
2023-02-06T16:57:09.665Z,16.55
2023-02-06T16:59:37.385Z,20.55
2023-02-06T17:02:10.755Z,17.85
2023-02-06T17:04:37.811Z,19.10
2023-02-06T17:07:05.024Z,19.80
2023-02-06T17:09:32.130Z,20.02
2023-02-06T17:11:59.243Z,20.67
2023-02-06T17:14:26.289Z,19.10
2023-02-06T17:16:53.468Z,20.25
2023-02-06T17:19:21.167Z,18.98
2023-02-06T17:21:48.256Z,18.40
2023-02-06T17:24:15.336Z,18.58
2023-02-06T17:26:42.406Z,19.50
2023-02-06T17:29:10.541Z,18.73
2023-02-06T17:31:37.581Z,18.75
2023-02-06T17:34:04.645Z,20.83
2023-02-06T17:36:33.086Z,19.73
2023-02-06T17:39:00.684Z,21.52
2023-02-06T17:41:28.266Z,19.25
2023-02-06T17:43:55.442Z,20.95
2023-02-06T17:46:22.627Z,20.35
2023-02-06T17:48:49.760Z,17.25
2023-02-06T17:51:16.832Z,22.88
2023-02-06T17:53:43.862Z,21.55
2023-02-06T17:56:12.877Z,20.95
2023-02-06T17:58:40.733Z,19.90
2023-02-06T18:01:11.839Z,19.27
2023-02-06T18:03:38.904Z,20.08
2023-02-06T18:06:05.983Z,19.35
2023-02-06T18:08:33.049Z,21.60
2023-02-06T18:11:00.597Z,21.80
2023-02-06T18:13:28.450Z,18.83
2023-02-06T18:15:56.660Z,22.13
2023-02-06T18:18:24.506Z,19.67
2023-02-06T18:20:52.245Z,21.45
2023-02-06T18:23:19.584Z,20.67
2023-02-06T18:25:46.613Z,21.23
2023-02-06T18:28:14.776Z,19.35
2023-02-06T18:30:42.466Z,20.55
2023-02-06T18:33:11.200Z,21.33
2023-02-06T18:35:42.254Z,22.25
2023-02-06T18:38:09.881Z,21.00
2023-02-06T18:40:38.541Z,21.10
2023-02-06T18:43:06.357Z,20.42
2023-02-06T18:45:36.357Z,19.33
2023-02-06T18:48:07.395Z,19.30
2023-02-06T18:50:34.923Z,18.80
2023-02-06T18:53:01.979Z,20.33
2023-02-06T18:55:29.059Z,26.23
2023-02-06T18:57:56.218Z,20.23
2023-02-06T19:00:24.048Z,21.77
2023-02-06T19:02:51.311Z,21.67
2023-02-06T19:05:18.891Z,25.90
2023-02-06T19:07:49.950Z,21.83
2023-02-06T19:10:17.077Z,22.92
2023-02-06T19:12:44.528Z,22.42
2023-02-06T19:15:12.366Z,24.75
2023-02-06T19:17:39.697Z,23.55
2023-02-06T19:20:07.405Z,24.45
2023-02-06T19:22:38.222Z,21.30
2023-02-06T19:25:06.385Z,20.45
2023-02-06T19:27:34.167Z,23.63
2023-02-06T19:30:01.346Z,22.73
2023-02-06T19:32:29.082Z,21.38
2023-02-06T19:34:57.770Z,20.98
2023-02-06T19:37:24.882Z,21.60
2023-02-06T19:39:52.408Z,25.67
2023-02-06T19:42:19.509Z,21.08
2023-02-06T19:44:46.560Z,23.60
2023-02-06T19:47:13.630Z,24.50
2023-02-06T19:49:40.728Z,22.13
2023-02-06T19:52:09.445Z,24.45
2023-02-06T19:54:36.458Z,23.38
2023-02-06T19:57:03.504Z,22.55
2023-02-06T19:59:30.716Z,21.35
2023-02-06T20:01:59.933Z,21.33
2023-02-06T20:04:28.862Z,22.65
2023-02-06T20:06:56.148Z,24.23
2023-02-06T20:09:23.641Z,21.98
2023-02-06T20:11:51.366Z,25.10
2023-02-06T20:14:19.282Z,23.52
2023-02-06T20:16:47.139Z,23.20
2023-02-06T20:19:18.257Z,25.00
2023-02-06T20:21:46.937Z,24.85
2023-02-06T20:24:15.974Z,24.00
2023-02-06T20:26:43.434Z,23.20
2023-02-06T20:29:11.981Z,26.10
2023-02-06T20:31:39.167Z,21.55
2023-02-06T20:34:06.262Z,24.90
2023-02-06T20:36:33.299Z,24.50
2023-02-06T20:39:00.852Z,24.63
2023-02-06T20:41:29.704Z,26.83
2023-02-06T20:43:57.427Z,27.00
2023-02-06T20:46:25.425Z,28.02
2023-02-06T20:48:53.924Z,28.23
2023-02-06T20:51:21.048Z,26.17
2023-02-06T20:53:48.104Z,26.08
2023-02-06T20:56:15.548Z,27.75
2023-02-06T20:58:43.290Z,31.02
2023-02-06T21:01:13.224Z,27.70
2023-02-06T21:03:40.393Z,29.48
2023-02-06T21:06:07.609Z,26.92
2023-02-06T21:08:34.749Z,27.70
2023-02-06T21:11:02.153Z,28.77
2023-02-06T21:13:29.450Z,29.05
2023-02-06T21:15:57.967Z,30.70
2023-02-06T21:18:26.622Z,24.00
2023-02-06T21:20:54.678Z,30.00
2023-02-06T21:23:21.760Z,29.88
2023-02-06T21:25:52.592Z,26.52
2023-02-06T21:28:19.995Z,29.88
2023-02-06T21:30:47.858Z,27.55
2023-02-06T21:33:16.187Z,25.92
2023-02-06T21:35:50.277Z,28.08
2023-02-06T21:38:17.384Z,28.88
2023-02-06T21:40:44.932Z,26.85
2023-02-06T21:43:12.255Z,29.40
2023-02-06T21:45:39.732Z,29.98
2023-02-06T21:48:06.830Z,32.67
2023-02-06T21:50:34.166Z,28.50
2023-02-06T21:53:01.283Z,31.52
2023-02-06T21:55:31.399Z,29.90
2023-02-06T21:58:01.234Z,28.55
2023-02-06T22:00:29.137Z,27.98
2023-02-06T22:02:56.215Z,29.67
2023-02-06T22:05:23.875Z,28.63
2023-02-06T22:07:50.978Z,27.77
2023-02-06T22:10:18.145Z,28.55
2023-02-06T22:12:48.885Z,29.63
2023-02-06T22:15:16.044Z,28.33
2023-02-06T22:17:43.062Z,27.65
2023-02-06T22:20:10.168Z,27.92
2023-02-06T22:22:38.600Z,26.52
2023-02-06T22:25:07.961Z,27.77
2023-02-06T22:27:35.403Z,26.80
2023-02-06T22:30:02.627Z,26.83
2023-02-06T22:32:30.022Z,25.77
2023-02-06T22:35:00.300Z,26.67
2023-02-06T22:37:27.378Z,28.55
2023-02-06T22:39:57.828Z,31.02
2023-02-06T22:42:24.919Z,25.90
2023-02-06T22:44:51.962Z,28.38
2023-02-06T22:47:19.148Z,25.65
2023-02-06T22:49:46.209Z,26.48
2023-02-06T22:52:48.733Z,28.42
2023-02-06T22:55:15.791Z,26.75
2023-02-06T22:57:42.837Z,28.33
2023-02-06T23:00:11.698Z,27.55
2023-02-06T23:02:39.382Z,29.30
2023-02-06T23:05:06.685Z,27.75
2023-02-06T23:07:33.711Z,29.98
2023-02-06T23:10:00.841Z,31.77
2023-02-06T23:12:28.216Z,30.90
2023-02-06T23:14:55.312Z,28.70
2023-02-06T23:17:22.331Z,32.20
2023-02-06T23:19:49.342Z,32.38
2023-02-06T23:22:16.345Z,29.95
2023-02-06T23:24:43.572Z,32.72
2023-02-06T23:27:10.638Z,31.60
2023-02-06T23:29:37.830Z,33.92
2023-02-06T23:32:05.371Z,29.80
2023-02-06T23:34:32.413Z,34.85
2023-02-06T23:36:59.417Z,29.85
2023-02-06T23:39:26.392Z,30.65
2023-02-06T23:41:53.586Z,31.55
2023-02-06T23:44:20.705Z,27.85
2023-02-06T23:46:47.789Z,30.15
2023-02-06T23:49:14.876Z,35.30
2023-02-06T23:51:41.953Z,31.90
2023-02-06T23:54:09.368Z,30.58
2023-02-06T23:56:36.556Z,29.13
2023-02-06T23:59:04.217Z,32.75
